createdAt,value
2018-09-19T00:00:23.189Z,58.80
2018-09-19T00:00:55.151Z,58.80
2018-09-19T00:01:27.112Z,58.90
2018-09-19T00:01:59.076Z,58.80
2018-09-19T00:02:30.852Z,58.80
2018-09-19T00:03:02.682Z,58.80
2018-09-19T00:03:34.739Z,58.80
2018-09-19T00:04:06.565Z,58.80
2018-09-19T00:04:38.442Z,58.90
2018-09-19T00:05:10.349Z,58.80
2018-09-19T00:05:42.359Z,58.80
2018-09-19T00:06:14.138Z,59.00
2018-09-19T00:06:45.989Z,59.50
2018-09-19T00:07:17.819Z,58.90
2018-09-19T00:07:49.761Z,59.00
2018-09-19T00:08:21.553Z,59.00
2018-09-19T00:08:53.373Z,59.00
2018-09-19T00:09:25.220Z,59.50
2018-09-19T00:09:57.253Z,58.90
2018-09-19T00:10:29.165Z,59.00
2018-09-19T00:11:01.025Z,58.90
2018-09-19T00:11:32.909Z,59.00
2018-09-19T00:12:04.861Z,59.00
2018-09-19T00:12:36.869Z,59.70
2018-09-19T00:13:08.899Z,59.00
2018-09-19T00:13:40.737Z,59.00
2018-09-19T00:14:12.770Z,59.00
2018-09-19T00:14:44.621Z,59.00
2018-09-19T00:15:16.585Z,59.00
2018-09-19T00:15:48.457Z,59.00
2018-09-19T00:16:20.376Z,59.00
2018-09-19T00:16:52.223Z,58.90
2018-09-19T00:17:24.367Z,59.00
2018-09-19T00:17:56.460Z,58.50
2018-09-19T00:18:28.323Z,59.10
2018-09-19T00:19:00.190Z,59.10
2018-09-19T00:19:32.029Z,59.40
2018-09-19T00:20:03.900Z,59.10
2018-09-19T00:20:36.248Z,59.20
2018-09-19T00:21:08.135Z,59.10
2018-09-19T00:21:39.917Z,59.10
2018-09-19T00:22:12.084Z,59.10
2018-09-19T00:22:44.016Z,59.10
2018-09-19T00:23:15.974Z,59.20
2018-09-19T00:23:47.784Z,59.20
2018-09-19T00:24:19.664Z,59.20
2018-09-19T00:24:51.605Z,59.10
2018-09-19T00:25:23.546Z,59.20
2018-09-19T00:25:55.434Z,59.10
2018-09-19T00:26:27.307Z,59.10
2018-09-19T00:26:59.196Z,59.10
2018-09-19T00:27:31.303Z,59.10
2018-09-19T00:28:03.141Z,59.10
2018-09-19T00:28:35.000Z,59.10
2018-09-19T00:29:06.828Z,59.10
2018-09-19T00:29:38.684Z,59.20
2018-09-19T00:30:10.597Z,59.20
2018-09-19T00:30:42.485Z,59.30
2018-09-19T00:31:14.614Z,59.20
2018-09-19T00:31:46.734Z,59.30
2018-09-19T00:32:18.843Z,59.90
2018-09-19T00:32:50.871Z,59.30
2018-09-19T00:33:22.742Z,59.80
2018-09-19T00:33:54.578Z,59.40
2018-09-19T00:34:26.426Z,59.40
2018-09-19T00:34:58.344Z,59.20
2018-09-19T00:35:30.152Z,59.30
2018-09-19T00:36:02.033Z,59.40
2018-09-19T00:36:34.056Z,59.30
2018-09-19T00:37:06.018Z,59.30
2018-09-19T00:37:38.067Z,59.30
2018-09-19T00:38:09.864Z,59.30
2018-09-19T00:38:41.683Z,59.20
2018-09-19T00:39:13.543Z,59.30
2018-09-19T00:39:45.442Z,59.30
2018-09-19T00:40:17.507Z,59.30
2018-09-19T00:40:49.324Z,59.30
2018-09-19T00:41:21.244Z,59.30
2018-09-19T00:41:53.276Z,59.30
2018-09-19T00:42:25.304Z,59.30
2018-09-19T00:42:57.116Z,59.30
2018-09-19T00:43:28.937Z,59.20
2018-09-19T00:44:00.813Z,59.30
2018-09-19T00:44:32.705Z,59.30
2018-09-19T00:45:04.698Z,59.30
2018-09-19T00:45:36.666Z,59.30
2018-09-19T00:46:08.701Z,59.40
2018-09-19T00:46:40.516Z,59.30
2018-09-19T00:47:12.371Z,59.30
2018-09-19T00:47:44.188Z,59.30
2018-09-19T00:48:15.996Z,59.30
2018-09-19T00:48:48.143Z,59.30
2018-09-19T00:49:20.104Z,59.30
2018-09-19T00:49:51.901Z,59.90
2018-09-19T00:50:23.783Z,59.40
2018-09-19T00:50:55.724Z,59.40
2018-09-19T00:51:27.533Z,59.20
2018-09-19T00:51:59.342Z,59.30
2018-09-19T00:52:31.164Z,59.40
2018-09-19T00:53:03.005Z,59.40
2018-09-19T00:53:34.852Z,59.40
2018-09-19T00:54:06.667Z,59.40
2018-09-19T00:54:38.571Z,59.40
2018-09-19T00:55:10.554Z,59.40
2018-09-19T00:55:42.399Z,59.30
2018-09-19T00:56:14.342Z,59.40
2018-09-19T00:56:46.146Z,59.40
2018-09-19T00:57:18.057Z,59.40
2018-09-19T00:57:49.854Z,59.30
2018-09-19T00:58:21.725Z,59.50
2018-09-19T00:58:53.764Z,59.40
2018-09-19T00:59:25.575Z,59.50
2018-09-19T00:59:57.422Z,59.50
2018-09-19T01:00:29.256Z,59.50
2018-09-19T01:01:01.109Z,59.50
2018-09-19T01:01:32.943Z,59.40
2018-09-19T01:02:04.745Z,59.30
2018-09-19T01:02:36.615Z,59.40
2018-09-19T01:03:08.592Z,59.50
2018-09-19T01:03:40.398Z,59.40
2018-09-19T01:04:12.198Z,59.50
2018-09-19T01:04:44.071Z,59.50
2018-09-19T01:05:16.002Z,59.50
2018-09-19T01:05:48.095Z,59.60
2018-09-19T01:06:19.931Z,59.50
2018-09-19T01:06:51.707Z,59.40
2018-09-19T01:07:23.541Z,59.50
2018-09-19T01:07:55.381Z,59.50
2018-09-19T01:08:27.209Z,59.50
2018-09-19T01:08:58.992Z,59.50
2018-09-19T01:09:30.785Z,59.50
2018-09-19T01:10:02.674Z,59.50
2018-09-19T01:10:34.476Z,59.50
2018-09-19T01:11:06.436Z,59.40
2018-09-19T01:11:38.338Z,59.50
2018-09-19T01:12:10.243Z,59.50
2018-09-19T01:12:42.094Z,59.50
2018-09-19T01:13:13.972Z,59.60
2018-09-19T01:13:45.763Z,59.50
2018-09-19T01:14:17.684Z,59.50
2018-09-19T01:14:49.554Z,59.60
2018-09-19T01:15:21.374Z,59.60
2018-09-19T01:15:53.454Z,59.60
2018-09-19T01:16:25.303Z,59.60
2018-09-19T01:16:57.217Z,59.60
2018-09-19T01:17:29.020Z,59.70
2018-09-19T01:18:00.832Z,59.50
2018-09-19T01:18:32.694Z,59.60
2018-09-19T01:19:04.577Z,59.60
2018-09-19T01:19:36.634Z,59.50
2018-09-19T01:20:08.445Z,59.60
2018-09-19T01:20:40.384Z,59.60
2018-09-19T01:21:12.182Z,59.60
2018-09-19T01:21:44.263Z,59.60
2018-09-19T01:22:16.104Z,59.60
2018-09-19T01:22:48.006Z,59.50
2018-09-19T01:23:19.835Z,59.50
2018-09-19T01:23:51.758Z,59.60
2018-09-19T01:24:23.572Z,59.60
2018-09-19T01:24:55.487Z,59.60
2018-09-19T01:25:27.419Z,59.60
2018-09-19T01:25:59.412Z,59.70
2018-09-19T01:26:31.456Z,59.60
2018-09-19T01:27:03.389Z,59.60
2018-09-19T01:27:35.324Z,60.20
2018-09-19T01:28:07.350Z,59.60
2018-09-19T01:28:39.194Z,59.60
2018-09-19T01:29:11.069Z,59.60
2018-09-19T01:29:42.895Z,59.50
2018-09-19T01:30:14.745Z,59.60
2018-09-19T01:30:46.852Z,59.50
2018-09-19T01:31:18.684Z,59.60
2018-09-19T01:31:50.523Z,59.50
2018-09-19T01:32:22.415Z,59.50
2018-09-19T01:32:54.396Z,59.50
2018-09-19T01:33:26.227Z,59.50
2018-09-19T01:33:58.356Z,59.50
2018-09-19T01:34:30.281Z,59.50
2018-09-19T01:35:02.227Z,59.50
2018-09-19T01:35:34.296Z,59.50
2018-09-19T01:36:06.135Z,59.50
2018-09-19T01:36:38.089Z,59.50
2018-09-19T01:37:10.159Z,59.50
2018-09-19T01:37:42.064Z,59.60
2018-09-19T01:38:13.845Z,59.60
2018-09-19T01:38:45.674Z,59.60
2018-09-19T01:39:17.541Z,59.50
2018-09-19T01:39:49.416Z,59.50
2018-09-19T01:40:21.294Z,59.50
2018-09-19T01:40:53.368Z,59.50
2018-09-19T01:41:25.444Z,59.40
2018-09-19T01:41:57.389Z,59.50
2018-09-19T01:42:29.296Z,59.50
2018-09-19T01:43:01.276Z,59.40
2018-09-19T01:43:33.225Z,59.50
2018-09-19T01:44:05.079Z,60.00
2018-09-19T01:44:36.887Z,59.50
2018-09-19T01:45:09.055Z,59.50
2018-09-19T01:45:40.956Z,59.40
2018-09-19T01:46:12.976Z,59.40
2018-09-19T01:46:45.223Z,59.50
2018-09-19T01:47:17.279Z,59.50
2018-09-19T01:47:49.111Z,59.40
2018-09-19T01:48:20.983Z,59.40
2018-09-19T01:48:52.816Z,59.40
2018-09-19T01:49:24.766Z,59.50
2018-09-19T01:49:56.742Z,59.40
2018-09-19T01:50:28.685Z,59.50
2018-09-19T01:51:00.526Z,59.40
2018-09-19T01:51:32.395Z,59.50
2018-09-19T01:52:04.289Z,59.40
2018-09-19T01:52:36.108Z,59.40
2018-09-19T01:53:08.005Z,59.40
2018-09-19T01:53:39.941Z,60.00
2018-09-19T01:54:11.922Z,59.50
2018-09-19T01:54:43.763Z,59.40
2018-09-19T01:55:15.787Z,59.40
2018-09-19T01:55:47.735Z,59.40
2018-09-19T01:56:19.675Z,59.40
2018-09-19T01:56:51.595Z,59.40
2018-09-19T01:57:23.596Z,59.40
2018-09-19T01:57:55.381Z,59.40
2018-09-19T01:58:27.348Z,59.30
2018-09-19T01:58:59.215Z,59.30
2018-09-19T01:59:31.077Z,59.30
2018-09-19T02:00:02.945Z,59.30
2018-09-19T02:00:34.976Z,59.30
2018-09-19T02:01:07.076Z,59.20
2018-09-19T02:01:38.883Z,59.40
2018-09-19T02:02:10.686Z,60.00
2018-09-19T02:02:42.633Z,59.20
2018-09-19T02:03:14.706Z,59.40
2018-09-19T02:03:46.497Z,59.30
2018-09-19T02:04:18.630Z,59.30
2018-09-19T02:04:50.446Z,59.30
2018-09-19T02:05:22.450Z,59.30
2018-09-19T02:05:54.500Z,59.40
2018-09-19T02:06:26.587Z,60.00
2018-09-19T02:06:58.624Z,59.30
2018-09-19T02:07:30.792Z,59.50
2018-09-19T02:08:02.846Z,59.40
2018-09-19T02:08:34.695Z,59.30
2018-09-19T02:09:06.530Z,59.30
2018-09-19T02:09:38.325Z,59.30
2018-09-19T02:10:10.158Z,59.30
2018-09-19T02:10:42.044Z,59.20
2018-09-19T02:11:13.997Z,59.20
2018-09-19T02:11:45.876Z,59.20
2018-09-19T02:12:17.820Z,59.20
2018-09-19T02:12:49.626Z,59.30
2018-09-19T02:13:21.566Z,59.20
2018-09-19T02:13:53.345Z,59.20
2018-09-19T02:14:25.505Z,59.20
2018-09-19T02:14:57.476Z,59.30
2018-09-19T02:15:29.559Z,59.30
2018-09-19T02:16:01.458Z,59.40
2018-09-19T02:16:33.307Z,59.30
2018-09-19T02:17:05.130Z,59.30
2018-09-19T02:17:37.064Z,59.40
2018-09-19T02:18:08.943Z,59.30
2018-09-19T02:18:40.797Z,59.40
2018-09-19T02:19:12.612Z,59.40
2018-09-19T02:19:44.612Z,59.40
2018-09-19T02:20:16.648Z,59.40
2018-09-19T02:20:48.839Z,59.40
2018-09-19T02:21:20.629Z,59.40
2018-09-19T02:21:52.478Z,59.40
2018-09-19T02:22:24.289Z,59.40
2018-09-19T02:22:56.150Z,59.40
2018-09-19T02:23:27.961Z,59.50
2018-09-19T02:23:59.797Z,59.50
2018-09-19T02:24:31.603Z,59.50
2018-09-19T02:25:03.543Z,59.50
2018-09-19T02:25:35.313Z,59.50
2018-09-19T02:26:07.220Z,59.50
2018-09-19T02:26:39.165Z,59.50
2018-09-19T02:27:10.958Z,59.60
2018-09-19T02:27:42.862Z,59.60
2018-09-19T02:28:14.733Z,59.60
2018-09-19T02:28:46.603Z,59.70
2018-09-19T02:29:18.661Z,59.80
2018-09-19T02:29:50.738Z,59.80
2018-09-19T02:30:22.549Z,59.90
2018-09-19T02:30:54.358Z,59.70
2018-09-19T02:31:26.168Z,59.80
2018-09-19T02:31:58.052Z,59.80
2018-09-19T02:32:30.309Z,59.90
2018-09-19T02:33:02.309Z,59.90
2018-09-19T02:33:34.080Z,60.00
2018-09-19T02:34:05.887Z,60.00
2018-09-19T02:34:37.753Z,59.90
2018-09-19T02:35:09.650Z,60.30
2018-09-19T02:35:41.529Z,60.00
2018-09-19T02:36:13.411Z,59.90
2018-09-19T02:36:45.280Z,59.90
2018-09-19T02:37:17.160Z,60.00
2018-09-19T02:37:49.006Z,60.00
2018-09-19T02:38:21.041Z,60.00
2018-09-19T02:38:52.889Z,60.00
2018-09-19T02:39:24.759Z,60.00
2018-09-19T02:39:56.765Z,60.00
2018-09-19T02:40:28.620Z,59.90
2018-09-19T02:41:00.500Z,60.00
2018-09-19T02:41:32.504Z,60.00
2018-09-19T02:42:04.312Z,60.00
2018-09-19T02:42:36.180Z,60.00
2018-09-19T02:43:08.002Z,60.00
2018-09-19T02:43:39.921Z,60.00
2018-09-19T02:44:11.782Z,61.00
2018-09-19T02:44:43.670Z,60.20
2018-09-19T02:45:15.693Z,59.80
2018-09-19T02:45:47.685Z,60.20
2018-09-19T02:46:19.555Z,60.20
2018-09-19T02:46:51.511Z,60.20
2018-09-19T02:47:23.350Z,60.20
2018-09-19T02:47:55.391Z,60.30
2018-09-19T02:48:27.352Z,60.30
2018-09-19T02:48:59.164Z,60.30
2018-09-19T02:49:31.173Z,60.30
2018-09-19T02:50:03.190Z,60.30
2018-09-19T02:50:34.987Z,60.30
2018-09-19T02:51:06.857Z,60.30
2018-09-19T02:51:38.893Z,61.00
2018-09-19T02:52:10.705Z,60.40
2018-09-19T02:52:42.507Z,60.40
2018-09-19T02:53:14.316Z,60.40
2018-09-19T02:53:46.332Z,60.30
2018-09-19T02:54:18.209Z,60.30
2018-09-19T02:54:49.987Z,60.40
2018-09-19T02:55:21.758Z,60.40
2018-09-19T02:55:53.671Z,60.30
2018-09-19T02:56:25.484Z,60.40
2018-09-19T02:56:57.310Z,60.40
2018-09-19T02:57:29.125Z,60.50
2018-09-19T02:58:00.928Z,60.50
2018-09-19T02:58:32.714Z,60.50
2018-09-19T02:59:04.519Z,60.50
2018-09-19T02:59:36.311Z,60.50
2018-09-19T03:00:08.118Z,60.50
2018-09-19T03:00:39.899Z,60.50
2018-09-19T03:01:11.709Z,60.50
2018-09-19T03:01:43.704Z,60.40
2018-09-19T03:02:15.562Z,60.50
2018-09-19T03:02:47.509Z,60.50
2018-09-19T03:03:19.391Z,60.50
2018-09-19T03:03:51.271Z,60.50
2018-09-19T03:04:23.218Z,60.50
2018-09-19T03:04:55.223Z,60.50
2018-09-19T03:05:27.087Z,60.50
2018-09-19T03:05:58.874Z,60.50
2018-09-19T03:06:30.691Z,60.50
2018-09-19T03:07:02.476Z,60.50
2018-09-19T03:07:34.281Z,60.10
2018-09-19T03:08:06.226Z,60.50
2018-09-19T03:08:38.260Z,60.40
2018-09-19T03:09:10.213Z,60.50
2018-09-19T03:09:42.138Z,61.50
2018-09-19T03:10:13.919Z,60.60
2018-09-19T03:10:45.762Z,60.70
2018-09-19T03:11:17.573Z,60.70
2018-09-19T03:11:49.424Z,60.70
2018-09-19T03:12:21.212Z,60.60
2018-09-19T03:12:53.006Z,60.60
2018-09-19T03:13:24.839Z,60.70
2018-09-19T03:13:56.709Z,60.60
2018-09-19T03:14:28.676Z,60.70
2018-09-19T03:15:00.506Z,60.60
2018-09-19T03:15:33.155Z,60.60
2018-09-19T03:16:04.957Z,60.60
2018-09-19T03:16:36.854Z,60.60
2018-09-19T03:17:08.771Z,60.60
2018-09-19T03:17:40.902Z,60.60
2018-09-19T03:18:12.777Z,60.50
2018-09-19T03:18:44.907Z,60.60
2018-09-19T03:19:16.759Z,60.50
2018-09-19T03:19:48.745Z,60.50
2018-09-19T03:20:20.884Z,60.50
2018-09-19T03:20:52.685Z,60.50
2018-09-19T03:21:24.551Z,60.50
2018-09-19T03:21:56.486Z,60.50
2018-09-19T03:22:28.280Z,60.60
2018-09-19T03:23:00.100Z,60.50
2018-09-19T03:23:31.926Z,60.60
2018-09-19T03:24:03.899Z,60.60
2018-09-19T03:24:35.956Z,60.50
2018-09-19T03:25:07.859Z,60.60
2018-09-19T03:25:39.660Z,61.40
2018-09-19T03:26:11.528Z,60.60
2018-09-19T03:26:43.360Z,60.50
2018-09-19T03:27:15.248Z,60.60
2018-09-19T03:27:47.376Z,60.60
2018-09-19T03:28:19.238Z,60.60
2018-09-19T03:28:51.108Z,60.60
2018-09-19T03:29:22.967Z,60.60
2018-09-19T03:29:54.893Z,60.60
2018-09-19T03:30:26.756Z,60.80
2018-09-19T03:30:58.693Z,60.50
2018-09-19T03:31:30.504Z,60.50
2018-09-19T03:32:02.600Z,60.60
2018-09-19T03:32:34.408Z,60.50
2018-09-19T03:33:06.208Z,60.60
2018-09-19T03:33:38.169Z,60.60
2018-09-19T03:34:10.128Z,60.60
2018-09-19T03:34:41.918Z,60.50
2018-09-19T03:35:13.732Z,60.60
2018-09-19T03:35:45.842Z,60.50
2018-09-19T03:36:17.737Z,60.40
2018-09-19T03:36:49.580Z,60.50
2018-09-19T03:37:21.535Z,60.50
2018-09-19T03:37:53.335Z,60.50
2018-09-19T03:38:25.168Z,60.50
2018-09-19T03:38:57.028Z,60.40
2018-09-19T03:39:28.867Z,60.40
2018-09-19T03:40:00.765Z,60.40
2018-09-19T03:40:32.632Z,60.50
2018-09-19T03:41:04.600Z,60.60
2018-09-19T03:41:36.486Z,60.50
2018-09-19T03:42:08.471Z,60.60
2018-09-19T03:42:40.420Z,60.60
2018-09-19T03:43:12.411Z,60.50
2018-09-19T03:43:44.476Z,60.50
2018-09-19T03:44:16.401Z,61.10
2018-09-19T03:44:48.299Z,60.50
2018-09-19T03:45:20.128Z,59.90
2018-09-19T03:45:52.005Z,60.40
2018-09-19T03:46:23.832Z,60.50
2018-09-19T03:46:55.683Z,60.40
2018-09-19T03:47:27.751Z,60.40
2018-09-19T03:47:59.711Z,60.40
2018-09-19T03:48:31.553Z,60.40
2018-09-19T03:49:03.360Z,60.40
2018-09-19T03:49:35.151Z,60.50
2018-09-19T03:50:06.955Z,60.40
2018-09-19T03:50:38.775Z,60.40
2018-09-19T03:51:10.698Z,60.40
2018-09-19T03:51:42.535Z,60.40
2018-09-19T03:52:14.423Z,60.40
2018-09-19T03:52:46.216Z,60.50
2018-09-19T03:53:18.033Z,60.40
2018-09-19T03:53:49.934Z,60.40
2018-09-19T03:54:21.863Z,60.40
2018-09-19T03:54:53.674Z,60.40
2018-09-19T03:55:25.523Z,60.40
2018-09-19T03:55:57.328Z,60.40
2018-09-19T03:56:29.123Z,61.10
2018-09-19T03:57:00.995Z,60.40
2018-09-19T03:57:32.984Z,60.40
2018-09-19T03:58:04.921Z,60.40
2018-09-19T03:58:36.798Z,60.40
2018-09-19T03:59:08.614Z,60.70
2018-09-19T03:59:40.477Z,60.30
2018-09-19T04:00:12.459Z,60.30
2018-09-19T04:00:44.229Z,60.30
2018-09-19T04:01:16.068Z,60.40
2018-09-19T04:01:47.864Z,60.30
2018-09-19T04:02:19.760Z,60.30
2018-09-19T04:02:51.599Z,60.30
2018-09-19T04:03:23.589Z,60.40
2018-09-19T04:03:55.414Z,60.40
2018-09-19T04:04:27.356Z,60.40
2018-09-19T04:04:59.625Z,60.40
2018-09-19T04:05:31.446Z,60.30
2018-09-19T04:06:03.288Z,60.30
2018-09-19T04:06:35.365Z,60.30
2018-09-19T04:07:07.274Z,60.30
2018-09-19T04:07:39.101Z,60.30
2018-09-19T04:08:11.100Z,60.30
2018-09-19T04:08:43.035Z,61.00
2018-09-19T04:09:14.887Z,60.30
2018-09-19T04:09:46.755Z,60.30
2018-09-19T04:10:18.726Z,60.30
2018-09-19T04:10:50.720Z,60.30
2018-09-19T04:11:22.529Z,60.30
2018-09-19T04:11:54.408Z,60.30
2018-09-19T04:12:26.217Z,60.30
2018-09-19T04:12:58.172Z,59.70
2018-09-19T04:13:30.001Z,60.30
2018-09-19T04:14:02.069Z,60.30
2018-09-19T04:14:33.916Z,60.30
2018-09-19T04:15:05.752Z,60.40
2018-09-19T04:15:37.547Z,60.30
2018-09-19T04:16:09.387Z,60.30
2018-09-19T04:16:41.292Z,60.40
2018-09-19T04:17:13.179Z,60.70
2018-09-19T04:17:45.192Z,59.90
2018-09-19T04:18:17.178Z,60.40
2018-09-19T04:18:49.128Z,60.40
2018-09-19T04:19:20.937Z,60.40
2018-09-19T04:19:52.919Z,60.40
2018-09-19T04:20:24.813Z,60.40
2018-09-19T04:20:56.717Z,60.40
2018-09-19T04:21:28.597Z,60.40
2018-09-19T04:22:00.441Z,60.40
2018-09-19T04:22:32.308Z,60.30
2018-09-19T04:23:04.202Z,60.30
2018-09-19T04:23:35.979Z,60.20
2018-09-19T04:24:07.848Z,60.30
2018-09-19T04:24:39.768Z,60.20
2018-09-19T04:25:11.614Z,60.20
2018-09-19T04:25:43.696Z,60.30
2018-09-19T04:26:15.639Z,60.30
2018-09-19T04:26:47.856Z,60.20
2018-09-19T04:27:19.757Z,60.30
2018-09-19T04:27:51.616Z,61.10
2018-09-19T04:28:23.658Z,60.30
2018-09-19T04:28:55.480Z,60.40
2018-09-19T04:29:27.266Z,60.30
2018-09-19T04:29:59.089Z,60.40
2018-09-19T04:30:30.956Z,60.30
2018-09-19T04:31:02.770Z,60.30
2018-09-19T04:31:34.625Z,60.30
2018-09-19T04:32:06.446Z,60.30
2018-09-19T04:32:38.476Z,60.30
2018-09-19T04:33:10.345Z,60.40
2018-09-19T04:33:42.238Z,60.30
2018-09-19T04:34:14.185Z,60.30
2018-09-19T04:34:46.373Z,61.10
2018-09-19T04:35:18.217Z,60.30
2018-09-19T04:35:50.196Z,60.30
2018-09-19T04:36:22.004Z,60.30
2018-09-19T04:36:53.828Z,60.30
2018-09-19T04:37:25.689Z,60.30
2018-09-19T04:37:57.602Z,60.30
2018-09-19T04:38:29.627Z,60.40
2018-09-19T04:39:01.404Z,60.30
2018-09-19T04:39:33.290Z,60.40
2018-09-19T04:40:05.273Z,60.30
2018-09-19T04:40:37.046Z,61.00
2018-09-19T04:41:08.916Z,60.30
2018-09-19T04:41:40.909Z,60.30
2018-09-19T04:42:12.766Z,60.30
2018-09-19T04:42:44.588Z,60.30
2018-09-19T04:43:16.380Z,60.30
2018-09-19T04:43:48.335Z,60.90
2018-09-19T04:44:20.291Z,60.30
2018-09-19T04:44:52.104Z,60.30
2018-09-19T04:45:24.043Z,60.30
2018-09-19T04:45:55.924Z,60.30
2018-09-19T04:46:27.783Z,60.30
2018-09-19T04:46:59.701Z,60.90
2018-09-19T04:47:31.896Z,60.30
2018-09-19T04:48:03.943Z,60.20
2018-09-19T04:48:35.790Z,60.20
2018-09-19T04:49:07.674Z,60.20
2018-09-19T04:49:39.490Z,60.20
2018-09-19T04:50:11.312Z,60.20
2018-09-19T04:50:43.133Z,60.20
2018-09-19T04:51:15.194Z,60.20
2018-09-19T04:51:47.303Z,60.20
2018-09-19T04:52:19.160Z,60.20
2018-09-19T04:52:51.247Z,60.10
2018-09-19T04:53:23.021Z,60.20
2018-09-19T04:53:54.886Z,60.20
2018-09-19T04:54:27.055Z,60.20
2018-09-19T04:54:59.154Z,60.20
2018-09-19T04:55:31.052Z,60.20
2018-09-19T04:56:03.003Z,60.90
2018-09-19T04:56:34.803Z,60.20
2018-09-19T04:57:06.672Z,60.10
2018-09-19T04:57:38.901Z,60.10
2018-09-19T04:58:10.848Z,60.00
2018-09-19T04:58:42.654Z,60.00
2018-09-19T04:59:14.534Z,60.00
2018-09-19T04:59:46.416Z,60.20
2018-09-19T05:00:18.255Z,60.90
2018-09-19T05:00:50.157Z,60.10
2018-09-19T05:01:22.223Z,60.10
2018-09-19T05:01:54.115Z,60.10
2018-09-19T05:02:26.121Z,60.20
2018-09-19T05:02:58.106Z,60.00
2018-09-19T05:03:29.936Z,60.80
2018-09-19T05:04:01.756Z,60.00
2018-09-19T05:04:33.554Z,60.10
2018-09-19T05:05:05.664Z,60.10
2018-09-19T05:05:37.697Z,60.10
2018-09-19T05:06:09.898Z,60.90
2018-09-19T05:06:41.741Z,60.10
2018-09-19T05:07:13.598Z,60.10
2018-09-19T05:07:45.654Z,60.20
2018-09-19T05:08:17.710Z,60.10
2018-09-19T05:08:49.564Z,60.10
2018-09-19T05:09:21.700Z,60.10
2018-09-19T05:09:53.534Z,60.10
2018-09-19T05:10:25.492Z,60.20
2018-09-19T05:10:57.384Z,60.10
2018-09-19T05:11:29.316Z,60.10
2018-09-19T05:12:01.412Z,60.20
2018-09-19T05:12:33.493Z,60.20
2018-09-19T05:13:05.263Z,60.10
2018-09-19T05:13:37.054Z,60.20
2018-09-19T05:14:08.859Z,60.10
2018-09-19T05:14:40.647Z,60.10
2018-09-19T05:15:12.712Z,60.10
2018-09-19T05:15:44.561Z,60.20
2018-09-19T05:16:16.470Z,60.20
2018-09-19T05:16:48.311Z,60.20
2018-09-19T05:17:20.395Z,60.10
2018-09-19T05:17:52.763Z,60.80
2018-09-19T05:18:24.621Z,60.10
2018-09-19T05:18:56.476Z,60.20
2018-09-19T05:19:28.308Z,60.10
2018-09-19T05:20:00.254Z,60.20
2018-09-19T05:20:32.070Z,60.10
2018-09-19T05:21:03.961Z,60.10
2018-09-19T05:21:35.803Z,59.50
2018-09-19T05:22:07.637Z,60.00
2018-09-19T05:22:39.471Z,60.10
2018-09-19T05:23:11.370Z,60.00
2018-09-19T05:23:43.283Z,60.10
2018-09-19T05:24:15.112Z,60.00
2018-09-19T05:24:46.964Z,60.00
2018-09-19T05:25:18.854Z,60.10
2018-09-19T05:25:50.651Z,60.10
2018-09-19T05:26:22.481Z,60.00
2018-09-19T05:26:54.265Z,60.00
2018-09-19T05:27:26.080Z,60.00
2018-09-19T05:27:57.921Z,60.00
2018-09-19T05:28:29.791Z,60.10
2018-09-19T05:29:01.564Z,60.00
2018-09-19T05:29:33.401Z,60.00
2018-09-19T05:30:05.260Z,60.00
2018-09-19T05:30:37.162Z,60.00
2018-09-19T05:31:09.110Z,60.00
2018-09-19T05:31:41.145Z,60.00
2018-09-19T05:32:13.355Z,60.00
2018-09-19T05:32:45.262Z,60.30
2018-09-19T05:33:17.080Z,60.00
2018-09-19T05:33:48.902Z,60.10
2018-09-19T05:34:21.011Z,60.00
2018-09-19T05:34:52.931Z,60.00
2018-09-19T05:35:24.840Z,60.00
2018-09-19T05:35:56.682Z,60.00
2018-09-19T05:36:28.458Z,60.00
2018-09-19T05:37:00.300Z,60.10
2018-09-19T05:37:32.335Z,60.00
2018-09-19T05:38:04.330Z,60.00
2018-09-19T05:38:36.236Z,60.00
2018-09-19T05:39:08.189Z,60.00
2018-09-19T05:39:40.102Z,60.00
2018-09-19T05:40:11.993Z,60.00
2018-09-19T05:40:43.962Z,60.00
2018-09-19T05:41:15.887Z,60.00
2018-09-19T05:41:47.949Z,60.00
2018-09-19T05:42:19.860Z,60.00
2018-09-19T05:42:51.715Z,60.00
2018-09-19T05:43:23.663Z,60.00
2018-09-19T05:43:55.455Z,60.00
2018-09-19T05:44:27.456Z,60.00
2018-09-19T05:44:59.330Z,60.00
2018-09-19T05:45:31.179Z,60.00
2018-09-19T05:46:02.984Z,60.00
2018-09-19T05:46:35.044Z,59.90
2018-09-19T05:47:07.003Z,60.00
2018-09-19T05:47:38.910Z,59.90
2018-09-19T05:48:10.883Z,60.00
2018-09-19T05:48:42.750Z,60.00
2018-09-19T05:49:14.540Z,60.00
2018-09-19T05:49:46.451Z,59.90
2018-09-19T05:50:18.291Z,59.90
2018-09-19T05:50:50.092Z,59.90
2018-09-19T05:51:21.893Z,60.00
2018-09-19T05:51:53.742Z,60.00
2018-09-19T05:52:25.593Z,59.80
2018-09-19T05:52:57.570Z,59.90
2018-09-19T05:53:29.468Z,59.90
2018-09-19T05:54:01.516Z,59.90
2018-09-19T05:54:33.399Z,59.90
2018-09-19T05:55:05.423Z,60.60
2018-09-19T05:55:37.390Z,59.90
2018-09-19T05:56:09.390Z,59.90
2018-09-19T05:56:41.221Z,59.90
2018-09-19T05:57:13.197Z,59.90
2018-09-19T05:57:45.033Z,59.90
2018-09-19T05:58:16.951Z,59.90
2018-09-19T05:58:49.022Z,59.90
2018-09-19T05:59:20.962Z,59.80
2018-09-19T05:59:52.802Z,60.60
2018-09-19T06:00:24.602Z,59.80
2018-09-19T06:00:56.613Z,59.90
2018-09-19T06:01:28.481Z,59.80
2018-09-19T06:02:00.344Z,59.80
2018-09-19T06:02:32.252Z,59.80
2018-09-19T06:03:04.240Z,59.80
2018-09-19T06:03:36.045Z,59.80
2018-09-19T06:04:07.821Z,59.80
2018-09-19T06:04:39.722Z,59.80
2018-09-19T06:05:11.704Z,59.80
2018-09-19T06:05:43.520Z,59.80
2018-09-19T06:06:15.552Z,59.80
2018-09-19T06:06:47.428Z,59.80
2018-09-19T06:07:19.243Z,59.80
2018-09-19T06:07:51.303Z,59.80
2018-09-19T06:08:23.380Z,59.80
2018-09-19T06:08:55.308Z,59.80
2018-09-19T06:09:27.121Z,59.80
2018-09-19T06:09:58.984Z,59.80
2018-09-19T06:10:30.795Z,59.80
2018-09-19T06:11:02.600Z,59.80
2018-09-19T06:11:34.524Z,59.90
2018-09-19T06:12:06.460Z,59.80
2018-09-19T06:12:38.289Z,59.90
2018-09-19T06:13:10.351Z,59.90
2018-09-19T06:13:42.174Z,59.90
2018-09-19T06:14:14.052Z,59.90
2018-09-19T06:14:45.832Z,60.60
2018-09-19T06:15:17.929Z,59.90
2018-09-19T06:15:49.753Z,59.90
2018-09-19T06:16:21.561Z,60.00
2018-09-19T06:16:53.444Z,59.90
2018-09-19T06:17:25.291Z,59.90
2018-09-19T06:17:57.110Z,59.80
2018-09-19T06:18:28.995Z,59.90
2018-09-19T06:19:00.844Z,59.80
2018-09-19T06:19:32.721Z,60.40
2018-09-19T06:20:04.642Z,59.80
2018-09-19T06:20:36.530Z,59.80
2018-09-19T06:21:08.513Z,59.70
2018-09-19T06:21:40.387Z,59.80
2018-09-19T06:22:12.387Z,59.80
2018-09-19T06:22:44.467Z,59.80
2018-09-19T06:23:16.474Z,59.80
2018-09-19T06:23:48.330Z,59.70
2018-09-19T06:24:20.241Z,59.70
2018-09-19T06:24:52.123Z,59.80
2018-09-19T06:25:23.926Z,59.80
2018-09-19T06:25:55.722Z,59.80
2018-09-19T06:26:27.595Z,59.80
2018-09-19T06:26:59.436Z,59.70
2018-09-19T06:27:31.422Z,59.80
2018-09-19T06:28:03.235Z,59.70
2018-09-19T06:28:35.046Z,59.80
2018-09-19T06:29:07.205Z,59.80
2018-09-19T06:29:39.134Z,60.40
2018-09-19T06:30:11.044Z,59.80
2018-09-19T06:30:42.870Z,59.30
2018-09-19T06:31:14.684Z,59.80
2018-09-19T06:31:46.505Z,59.80
2018-09-19T06:32:18.371Z,59.80
2018-09-19T06:32:50.227Z,59.80
2018-09-19T06:33:22.225Z,59.80
2018-09-19T06:33:54.228Z,60.50
2018-09-19T06:34:26.060Z,59.80
2018-09-19T06:34:58.061Z,59.70
2018-09-19T06:35:29.887Z,59.80
2018-09-19T06:36:01.725Z,59.70
2018-09-19T06:36:33.551Z,59.80
2018-09-19T06:37:05.460Z,59.80
2018-09-19T06:37:37.632Z,59.80
2018-09-19T06:38:09.449Z,59.80
2018-09-19T06:38:41.306Z,60.60
2018-09-19T06:39:13.226Z,59.80
2018-09-19T06:39:45.052Z,59.80
2018-09-19T06:40:17.039Z,59.80
2018-09-19T06:40:49.111Z,59.80
2018-09-19T06:41:21.142Z,59.80
2018-09-19T06:41:52.985Z,60.50
2018-09-19T06:42:24.781Z,59.80
2018-09-19T06:42:56.704Z,59.90
2018-09-19T06:43:28.536Z,59.90
2018-09-19T06:44:00.413Z,59.90
2018-09-19T06:44:32.495Z,59.80
2018-09-19T06:45:04.327Z,60.00
2018-09-19T06:45:36.419Z,59.80
2018-09-19T06:46:08.331Z,59.90
2018-09-19T06:46:40.220Z,59.80
2018-09-19T06:47:12.083Z,59.80
2018-09-19T06:47:43.936Z,59.80
2018-09-19T06:48:15.916Z,59.80
2018-09-19T06:48:47.749Z,59.80
2018-09-19T06:49:19.642Z,59.80
2018-09-19T06:49:51.457Z,59.90
2018-09-19T06:50:23.338Z,59.90
2018-09-19T06:50:55.222Z,59.80